Date,TemperatureHighF,TemperatureAvgF,TemperatureLowF,DewpointHighF,DewpointAvgF,DewpointLowF,HumidityHigh,HumidityAvg,HumidityLow,PressureMaxIn,PressureMinIn,WindSpeedMaxMPH,WindSpeedAvgMPH,GustSpeedMaxMPH,PrecipitationSumIn
2013-1-1,32.0,26.3,13.0,25.0,14.0,1.7,80,60,42,29.89,29.62,16,5,24,0.00
2013-1-2,23.5,14.0,6.0,10.1,2.2,-6.0,74,59,40,30.08,29.86,21,5,21,0.00
2013-1-3,22.8,12.1,3.5,5.2,0.2,-7.0,77,59,42,30.11,29.96,14,3,14,0.00
2013-1-4,33.6,24.9,11.3,23.7,16.9,3.5,87,72,63,29.96,29.75,18,3,18,0.00
2013-1-5,36.4,31.5,24.2,25.5,18.2,11.0,78,59,40,30.27,29.75,28,4,32,0.00
2013-1-6,37.4,29.1,21.9,26.9,22.4,15.4,87,76,64,30.24,29.92,14,2,16,0.00
2013-1-7,32.2,26.6,21.6,28.0,20.8,13.0,91,79,63,30.40,29.94,15,2,15,0.00
2013-1-8,42.6,33.0,20.8,27.1,23.2,13.5,93,69,45,30.36,30.19,21,4,21,0.00
2013-1-9,41.9,32.8,23.8,35.9,27.5,21.8,93,81,69,30.41,29.90,20,2,20,0.00
2013-1-10,43.5,39.3,32.5,33.4,26.4,22.0,87,61,47,30.53,29.92,34,8,36,0.00
2013-1-11,37.7,32.8,27.1,36.1,26.0,21.0,95,76,62,30.54,30.25,9,1,9,0.02
2013-1-12,43.2,39.8,36.4,40.7,38.8,35.6,99,96,89,30.25,30.11,7,1,7,0.05
2013-1-13,46.2,41.7,39.0,46.2,41.3,38.7,100,99,98,30.16,29.95,13,1,13,0.01
2013-1-14,59.2,46.9,37.5,49.9,40.2,25.8,100,80,47,30.22,29.84,17,4,17,0.00
2013-1-15,38.1,35.1,32.0,27.5,25.2,22.0,81,67,55,30.32,30.22,10,1,10,0.00
2013-1-16,34.1,31.3,28.3,32.6,28.1,22.4,98,89,65,30.27,29.78,9,2,9,0.01
2013-1-17,40.1,30.6,18.6,32.3,22.0,-1.0,97,73,32,30.13,29.76,20,4,24,0.19
2013-1-18,20.1,15.5,10.6,5.1,-3.1,-11.0,56,43,29,30.42,30.09,17,4,19,0.00
2013-1-19,41.7,33.8,16.7,30.8,19.6,2.7,69,56,47,30.37,29.86,23,3,23,0.05
2013-1-20,50.0,39.9,26.3,35.3,25.7,5.8,80,58,32,29.86,29.44,32,8,32,0.00
2013-1-21,26.4,22.6,16.9,15.3,3.6,-2.9,72,44,31,30.05,29.83,27,6,29,0.00
2013-1-22,22.9,16.8,9.5,15.3,6.8,-5.0,83,65,47,30.05,29.76,17,4,17,0.00
2013-1-23,9.4,4.3,-0.2,-4.7,-12.0,-17.6,60,47,31,30.11,30.04,24,5,24,0.00
2013-1-24,17.1,6.3,-2.6,-5.5,-10.1,-15.0,66,47,28,30.15,29.96,24,5,24,0.00
2013-1-25,21.8,12.0,1.6,4.5,-2.5,-8.0,70,53,35,30.23,30.07,10,2,12,0.00
2013-1-26,21.9,16.4,10.7,4.1,-1.7,-7.0,60,45,29,30.16,29.99,22,5,22,0.00
2013-1-27,27.5,18.5,11.1,4.4,-1.0,-7.0,60,43,29,30.45,30.16,21,4,21,0.00
2013-1-28,28.4,20.5,11.9,21.7,8.4,-7.0,93,62,23,30.44,30.07,11,1,12,0.00
2013-1-29,32.9,27.8,22.0,30.4,24.3,19.3,93,87,77,30.22,30.07,11,1,12,0.02
2013-1-30,51.0,42.9,32.2,50.7,42.3,30.6,99,98,94,30.15,29.43,25,4,25,0.30
2013-1-31,53.7,44.7,30.7,53.1,33.7,10.0,99,69,38,29.47,28.86,45,11,48,0.18
2013-2-1,30.5,25.7,17.7,17.5,7.9,1.0,61,47,35,30.05,29.47,29,8,29,0.00
2013-2-2,26.1,20.7,12.4,14.7,6.5,1.0,72,54,39,30.21,30.05,12,1,12,0.00
2013-2-3,27.7,25.3,21.7,19.4,16.1,12.9,84,68,57,30.05,29.70,14,3,14,0.00
2013-2-4,29.3,24.4,18.7,15.6,7.0,-5.0,79,49,27,29.88,29.67,29,7,31,0.00
2013-2-5,25.1,19.0,11.9,15.6,4.0,-5.0,67,52,35,30.04,29.88,11,2,16,0.00
2013-2-6,37.7,26.8,19.5,23.7,14.3,-7.0,85,61,28,30.29,29.93,20,4,21,0.00
2013-2-7,22.5,17.7,12.7,4.4,-2.5,-7.1,56,41,30,30.57,30.28,16,3,16,0.00
2013-2-8,18.0,15.6,12.6,16.5,12.6,1.2,94,88,51,30.56,29.85,31,8,31,0.00
2013-2-9,21.0,16.3,12.2,14.3,10.8,6.8,93,79,61,30.13,29.65,39,14,40,0.00
2013-2-10,37.0,25.0,14.5,15.6,2.7,-1.3,63,40,20,30.36,30.13,19,4,20,0.00
2013-2-11,41.4,27.1,16.0,40.6,21.8,3.7,98,81,46,30.35,29.59,11,1,11,0.52
2013-2-12,45.3,37.0,29.9,31.9,29.7,27.9,98,76,51,29.79,29.54,20,4,20,0.01
2013-2-13,43.2,35.8,30.0,28.8,26.1,23.0,79,68,48,29.83,29.73,13,2,13,0.00
2013-2-14,41.9,35.7,31.0,27.9,23.9,19.0,78,63,41,30.00,29.71,16,3,16,0.00
2013-2-15,45.3,36.6,25.9,37.6,31.7,23.0,92,83,70,30.00,29.90,19,2,19,0.00
2013-2-16,36.9,34.2,29.0,34.3,28.8,13.0,94,81,51,29.94,29.76,20,4,20,0.01
2013-2-17,29.0,22.5,19.0,18.3,11.7,1.9,89,65,44,29.76,29.21,43,11,44,0.00
2013-2-18,32.9,23.1,16.5,7.7,2.1,-3.1,55,41,23,30.06,29.49,29,8,32,0.00
2013-2-19,44.4,33.0,20.9,43.3,18.5,-3.4,97,59,30,30.11,29.55,19,3,19,0.49
2013-2-20,44.2,34.4,27.3,43.1,26.9,16.0,98,75,58,29.67,29.44,26,7,26,0.04
2013-2-21,29.4,26.8,23.5,21.8,15.6,9.6,73,62,49,30.15,29.67,21,7,24,0.00
2013-2-22,38.7,32.1,27.3,25.6,22.2,20.4,81,67,49,30.40,30.15,16,3,16,0.00
2013-2-23,36.8,33.5,30.2,34.4,30.2,24.8,96,88,80,30.36,30.00,6,1,11,0.08
2013-2-24,35.9,31.9,29.1,34.6,31.2,28.6,98,97,94,30.00,29.77,11,2,11,0.07
2013-2-25,40.0,33.1,27.3,32.0,29.4,26.0,98,86,66,30.25,29.91,11,1,11,0.15
2013-2-26,41.9,36.5,33.3,32.4,31.0,28.0,94,81,63,30.37,30.23,5,1,5,0.00
2013-2-27,38.8,35.7,32.5,35.7,33.3,30.5,98,91,77,30.24,29.64,18,5,18,0.43
2013-2-28,40.4,36.0,32.8,40.1,35.1,31.0,99,96,93,29.64,29.53,15,4,15,0.52
2013-3-1,36.5,33.9,32.3,32.7,30.9,29.5,97,89,77,29.68,29.54,15,4,16,0.01
2013-3-2,43.2,35.5,31.8,32.6,30.9,28.0,97,84,58,29.66,29.60,14,4,14,0.03
2013-3-3,42.4,36.2,31.5,35.1,31.1,27.0,98,82,64,29.62,29.53,15,3,16,0.09
2013-3-4,37.4,33.8,31.9,30.1,26.5,23.5,89,75,67,29.69,29.51,22,7,24,0.00
2013-3-5,43.7,38.3,33.2,35.8,31.9,24.9,89,77,70,30.11,29.69,17,5,18,0.00
2013-3-6,38.2,35.9,32.9,34.1,31.0,28.3,94,83,72,30.24,30.11,19,7,19,0.00
2013-3-7,36.3,34.0,31.3,29.6,27.5,26.0,90,77,68,30.20,30.07,22,8,22,0.00
2013-3-8,45.1,36.7,29.4,29.2,26.7,22.8,96,69,42,30.19,30.02,25,10,26,0.00
2013-3-9,44.1,36.1,30.2,32.6,27.9,23.7,95,73,50,30.39,30.19,21,4,21,0.00
2013-3-10,39.1,34.2,28.3,32.7,29.6,25.5,93,83,73,30.44,30.31,9,2,9,0.00
2013-3-11,44.7,39.4,35.2,39.8,35.8,32.6,95,87,73,30.33,30.15,16,3,18,0.00
2013-3-12,48.7,44.5,40.2,48.4,43.1,39.0,99,95,90,30.17,29.73,28,3,28,0.65
2013-3-13,48.9,43.8,36.6,47.3,38.8,29.7,99,83,66,29.75,29.67,14,3,19,0.01
2013-3-14,40.2,33.3,22.3,29.9,22.0,7.7,84,64,41,29.76,29.62,23,5,24,0.00
2013-3-15,38.2,27.0,17.9,26.4,11.9,4.9,81,54,29,29.82,29.60,21,4,22,0.00
2013-3-16,36.7,31.1,26.1,26.5,15.4,11.0,82,53,37,29.90,29.63,19,4,20,0.00
2013-3-17,32.8,27.4,21.2,14.8,7.5,-0.6,68,44,24,30.33,29.90,26,5,30,0.00
2013-3-18,35.6,26.7,17.0,21.1,8.0,-1.1,64,46,24,30.46,30.28,12,2,15,0.00
2013-3-19,33.8,29.8,23.6,31.4,27.6,21.0,98,92,63,30.28,29.67,20,5,20,0.00
2013-3-20,37.6,29.5,21.5,25.6,21.5,18.6,96,74,48,29.75,29.63,23,6,27,0.04
2013-3-21,39.9,30.9,23.4,26.4,20.4,15.5,89,66,39,29.78,29.61,15,3,15,0.00
2013-3-22,39.0,32.2,26.7,24.9,20.0,16.0,87,61,41,29.67,29.60,12,3,12,0.00
2013-3-23,41.7,34.0,26.0,25.0,21.5,16.9,75,61,42,29.68,29.52,24,7,31,0.00
2013-3-24,47.4,38.8,31.9,27.7,24.7,23.0,71,58,40,29.79,29.67,19,5,20,0.00
2013-3-25,42.7,36.8,32.3,35.6,30.1,25.7,85,76,67,29.78,29.58,13,3,13,0.00
2013-3-26,50.5,41.4,33.4,29.4,24.8,20.9,74,53,33,29.74,29.57,19,6,19,0.00
2013-3-27,51.2,40.1,32.1,37.0,29.6,23.0,93,68,40,29.87,29.72,20,5,20,0.08
2013-3-28,49.9,42.5,37.3,36.3,33.4,29.0,93,71,46,29.99,29.87,14,4,16,0.01
2013-3-29,56.2,46.4,38.5,36.0,31.7,28.8,75,58,37,30.02,29.95,19,4,20,0.00
2013-3-30,55.1,44.0,36.1,33.8,29.5,18.8,79,58,24,30.09,29.99,12,3,15,0.00
2013-3-31,48.1,41.3,30.6,39.8,30.2,18.0,84,65,43,30.12,29.84,19,2,20,0.00
2013-4-1,52.9,43.6,35.2,43.8,37.5,16.0,97,81,42,29.84,29.49,24,5,24,0.63
2013-4-2,38.2,33.4,28.8,16.5,12.0,6.9,53,41,29,29.85,29.70,28,8,29,0.00
2013-4-3,45.7,36.4,29.4,18.4,12.4,5.0,58,39,20,30.07,29.82,31,8,31,0.00
2013-4-4,51.7,39.9,29.8,35.6,19.9,7.6,79,48,19,30.23,29.98,23,5,23,0.00
2013-4-5,52.6,44.5,38.7,33.6,28.5,22.0,69,54,33,29.98,29.64,25,5,26,0.00
2013-4-6,41.9,34.3,27.6,26.0,9.8,1.7,83,38,19,30.35,29.83,34,7,34,0.00
2013-4-7,45.7,40.9,31.5,39.8,30.0,11.1,86,65,39,30.35,29.95,24,4,25,0.00
2013-4-8,59.2,49.3,41.1,40.8,37.5,33.9,90,66,40,30.14,29.91,16,4,17,0.00
2013-4-9,51.7,44.5,41.9,45.2,41.4,36.6,97,89,75,30.12,29.89,13,2,14,0.14
2013-4-10,53.1,45.6,42.1,47.8,43.3,40.4,98,92,82,30.01,29.89,9,1,9,0.48
2013-4-11,49.4,45.0,41.6,43.8,35.6,20.0,98,72,36,30.19,29.87,12,2,12,0.06
2013-4-12,41.6,36.6,34.6,35.9,27.6,17.4,97,72,42,30.26,29.88,12,4,13,0.27
2013-4-13,46.8,38.1,33.9,40.0,35.6,33.0,98,91,71,29.93,29.79,13,4,13,0.07
2013-4-14,50.5,44.8,39.6,40.0,37.0,31.0,95,76,53,30.19,29.90,10,3,18,0.01
2013-4-15,47.8,41.5,34.9,41.0,36.2,31.0,96,82,59,30.42,30.19,8,2,12,0.00
2013-4-16,51.3,46.2,39.6,48.0,41.7,39.0,98,85,68,30.42,29.96,20,5,24,0.00
2013-4-17,62.3,54.8,46.5,53.0,34.4,26.0,89,49,25,30.34,29.96,14,5,23,0.00
2013-4-18,48.1,45.0,38.8,41.0,34.6,26.0,81,68,51,30.48,30.18,11,2,15,0.00
2013-4-19,65.2,54.1,46.0,57.0,51.2,41.0,98,90,74,30.18,29.63,14,5,27,0.00
2013-4-20,56.9,52.1,44.1,56.0,38.5,22.0,99,65,33,30.16,29.58,17,7,27,0.21
2013-4-21,51.5,42.7,35.7,30.0,22.5,17.0,70,47,26,30.70,30.17,11,4,19,0.00
2013-4-22,47.6,42.6,36.9,37.9,32.2,23.0,79,67,47,30.83,30.65,9,2,10,0.00
2013-4-23,42.2,39.6,35.7,41.4,36.2,29.4,97,88,68,30.65,30.20,8,4,14,0.03
2013-4-24,59.7,48.4,42.2,51.4,45.3,41.0,98,89,72,30.20,29.78,18,5,18,0.05
2013-4-25,63.4,53.9,47.0,50.8,39.2,30.7,95,61,30,30.29,29.77,24,4,27,0.03
2013-4-26,52.2,46.3,39.8,39.3,35.4,30.0,94,66,48,30.46,30.29,8,2,10,0.00
2013-4-27,50.6,45.6,38.9,45.4,40.9,35.8,95,84,67,30.43,30.32,9,2,9,0.00
2013-4-28,58.4,49.3,38.7,45.1,39.3,33.0,92,71,40,30.36,30.26,11,2,11,0.00
2013-4-29,60.6,49.0,41.7,48.8,44.2,40.0,96,84,57,30.28,30.22,11,1,13,0.00
2013-4-30,62.2,50.3,39.9,49.2,40.3,22.8,97,73,24,30.40,30.25,10,2,12,0.00
2013-5-1,63.7,51.6,39.2,47.2,37.2,30.0,84,60,32,30.48,30.38,14,2,14,0.00
2013-5-2,56.6,48.6,43.4,49.5,42.8,37.6,96,81,60,30.54,30.40,11,1,11,0.00
2013-5-3,56.3,48.6,42.5,44.6,41.6,38.5,88,77,61,30.56,30.39,6,2,10,0.00
2013-5-4,52.2,46.6,40.4,43.8,41.3,38.0,97,82,64,30.41,30.34,9,1,9,0.00
2013-5-5,56.8,44.3,37.4,43.0,38.8,35.6,95,83,52,30.36,30.27,12,2,15,0.00
2013-5-6,57.9,47.2,39.7,48.0,44.0,39.0,98,89,63,30.29,30.19,7,2,10,0.00
2013-5-7,67.0,52.1,44.0,56.0,49.0,44.0,99,90,59,30.20,30.10,9,2,17,0.01
2013-5-8,66.0,55.3,49.0,58.0,53.2,48.7,100,93,75,30.25,30.12,7,1,10,0.04
2013-5-9,57.4,52.4,50.5,56.3,51.9,50.0,99,98,91,30.12,29.91,9,0,9,0.78
2013-5-10,67.5,54.7,48.9,61.1,53.4,48.6,100,95,77,29.97,29.90,7,1,7,0.01
2013-5-11,63.3,56.1,50.5,59.4,55.0,50.2,100,96,86,29.94,29.69,15,4,23,0.19
2013-5-12,69.0,59.6,50.9,61.2,53.0,35.4,100,82,44,29.75,29.54,15,3,21,0.06
2013-5-13,57.4,50.4,42.4,36.0,30.7,27.8,65,47,34,30.02,29.75,22,5,23,0.00
2013-5-14,57.6,49.5,43.0,42.0,34.7,24.8,78,58,30,30.04,29.95,18,3,21,0.00
2013-5-15,60.9,51.3,39.9,49.7,38.2,23.0,95,64,25,30.03,29.66,22,3,22,0.22
2013-5-16,78.7,62.8,46.9,54.1,44.8,34.0,99,60,20,29.79,29.57,24,4,26,0.00
2013-5-17,66.8,58.0,50.6,44.0,40.9,34.7,73,54,32,30.22,29.79,19,3,20,0.00
2013-5-18,59.2,51.5,45.6,48.5,45.1,41.4,92,79,57,30.34,30.21,9,1,9,0.00
2013-5-19,58.1,51.5,48.8,50.3,48.5,46.6,98,89,74,30.39,30.24,9,1,9,0.08
2013-5-20,70.2,57.5,49.7,63.0,55.7,49.0,99,94,73,30.24,29.93,10,1,10,0.39
2013-5-21,55.4,50.6,48.3,54.3,49.5,47.5,98,96,92,30.13,29.96,20,1,24,0.22
2013-5-22,54.4,50.5,48.7,53.1,49.6,48.3,99,97,90,30.02,29.91,7,0,19,0.56
2013-5-23,63.9,55.2,48.5,61.7,54.1,48.1,99,96,89,29.97,29.80,20,2,20,0.14
2013-5-24,64.1,58.7,50.3,63.3,58.1,48.9,100,98,94,29.84,29.64,18,4,19,1.38
2013-5-25,52.3,48.8,46.5,50.3,47.8,46.0,99,96,89,29.84,29.64,20,6,20,0.39
2013-5-26,57.2,50.0,45.3,46.8,43.3,39.5,99,79,54,30.01,29.59,25,5,25,0.01
2013-5-27,69.5,56.7,41.6,43.1,37.2,31.5,87,53,26,30.17,30.00,22,4,22,0.00
2013-5-28,71.4,57.7,44.7,49.7,41.0,32.2,95,58,25,30.25,30.17,15,2,16,0.00
2013-5-29,56.2,53.1,49.6,55.9,52.5,48.2,99,98,94,30.20,30.00,7,0,8,0.20
2013-5-30,81.9,66.8,53.4,67.3,60.2,53.1,100,81,49,30.03,29.96,9,1,12,0.00
2013-5-31,93.5,77.2,60.2,68.5,63.7,58.0,97,66,38,30.05,29.88,15,2,16,0.00
2013-6-1,91.6,78.9,68.7,71.7,65.4,61.6,85,64,49,29.92,29.80,18,3,18,0.00
2013-6-2,77.6,72.8,66.5,68.3,65.7,60.6,95,79,66,29.82,29.67,22,4,23,0.32
2013-6-3,74.1,66.7,61.1,68.0,63.2,54.0,99,89,70,29.81,29.71,17,3,17,0.06
2013-6-4,67.3,61.5,53.2,54.7,46.3,41.0,89,59,41,30.07,29.78,18,3,20,0.00
2013-6-5,69.8,60.0,51.6,51.3,45.8,37.4,81,61,36,30.18,30.07,14,2,14,0.00
2013-6-6,67.2,59.3,54.2,56.6,52.2,46.6,96,79,52,30.22,30.15,6,0,7,0.00
2013-6-7,58.7,54.6,51.4,54.7,52.4,49.0,98,92,76,30.15,29.92,6,0,6,0.89
2013-6-8,72.9,59.5,53.2,61.8,56.4,52.7,99,90,65,29.98,29.64,9,2,16,1.01
2013-6-9,74.6,64.1,58.1,63.3,59.0,55.8,97,84,66,30.15,29.97,6,0,7,0.00
2013-6-10,65.8,61.2,56.7,57.8,55.6,52.7,97,82,71,30.23,30.06,10,1,10,0.04
2013-6-11,57.0,55.0,53.9,56.0,54.3,53.0,99,97,93,30.06,29.56,10,1,10,1.11
2013-6-12,63.3,58.9,55.0,58.4,56.0,53.8,98,91,79,29.77,29.53,19,3,19,0.19
2013-6-13,70.0,60.3,53.8,56.5,53.9,51.1,98,81,55,29.80,29.73,14,1,14,0.00
2013-6-14,75.7,61.5,54.2,61.5,56.0,53.8,99,84,53,29.75,29.66,7,1,9,0.05
2013-6-15,77.3,66.4,56.7,56.2,48.4,41.4,96,56,29,29.90,29.74,17,2,18,0.00
2013-6-16,75.3,65.0,57.6,57.7,53.2,47.0,87,66,47,29.91,29.71,14,2,14,0.00
2013-6-17,81.8,69.0,59.8,63.6,60.2,57.2,93,75,44,29.87,29.72,14,3,16,0.00
2013-6-18,67.5,61.5,57.5,61.9,58.1,55.3,96,89,73,30.00,29.85,8,0,8,0.12
2013-6-19,75.0,64.0,53.6,58.2,52.7,47.0,99,69,41,30.15,29.92,9,1,9,0.01
2013-6-20,73.3,63.9,52.1,57.7,52.1,47.7,89,67,42,30.26,30.14,14,2,14,0.00
2013-6-21,79.4,67.0,56.0,61.2,57.9,52.7,95,75,43,30.24,30.18,12,1,12,0.00
2013-6-22,80.7,68.1,60.2,67.1,62.4,58.5,95,83,55,30.20,30.09,12,1,12,0.00
2013-6-23,79.9,69.1,62.4,70.1,65.1,60.7,98,88,67,30.15,29.97,17,1,17,1.50
2013-6-24,92.0,78.3,67.1,73.5,68.9,64.3,99,76,47,29.98,29.82,16,2,18,0.00
2013-6-25,90.5,77.1,67.7,74.6,68.5,62.6,97,76,56,29.87,29.69,15,2,15,0.64
2013-6-26,78.8,67.4,56.8,72.0,65.1,56.0,99,93,77,29.90,29.69,8,0,8,0.13
2013-6-27,62.2,57.5,55.1,58.8,56.4,54.5,99,96,87,29.89,29.83,4,0,4,0.47
2013-6-28,65.2,59.5,55.0,65.2,59.3,54.7,100,99,98,29.83,29.53,15,1,15,0.84
2013-6-29,75.9,67.5,63.2,70.6,65.7,62.3,100,94,82,29.69,29.54,14,3,18,0.01
2013-6-30,82.5,71.4,63.7,72.8,67.7,63.0,100,89,71,29.93,29.69,15,2,15,0.00
2013-7-1,80.8,67.4,62.4,74.4,65.9,62.0,100,95,76,30.10,29.92,6,0,7,1.88
2013-7-2,64.5,60.6,56.8,64.5,60.5,56.6,100,100,98,30.23,30.08,6,0,10,0.43
2013-7-3,69.3,63.0,57.5,65.8,61.5,57.5,100,95,85,30.22,30.09,5,0,7,0.06
2013-7-4,87.0,75.6,63.9,77.5,70.8,63.3,100,86,68,30.17,30.03,14,1,14,0.00
2013-7-5,92.3,80.8,73.9,76.0,72.9,69.2,93,78,50,30.11,29.98,11,2,14,0.00
2013-7-6,89.3,82.3,75.9,75.6,71.4,64.3,91,70,56,30.02,29.92,9,3,16,0.02
2013-7-7,88.3,78.4,70.2,71.9,67.8,64.1,91,71,48,29.98,29.90,12,2,13,0.01
2013-7-8,73.4,69.1,63.7,70.9,65.3,60.3,98,88,71,30.08,29.90,7,0,7,0.17
2013-7-9,71.0,64.0,61.1,65.0,62.2,60.4,99,94,76,30.13,30.07,4,0,4,0.10
2013-7-10,65.8,62.7,60.2,65.7,61.9,59.6,100,97,92,30.10,29.77,3,0,3,0.10
2013-7-11,78.2,70.8,65.8,74.5,69.7,65.3,100,96,84,29.95,29.74,8,0,8,0.02
2013-7-12,80.2,69.5,63.5,66.1,61.4,58.5,91,76,56,30.22,29.95,9,1,9,0.00
2013-7-13,79.8,69.3,60.4,66.2,62.5,57.0,98,80,46,30.33,30.22,9,1,9,0.00
2013-7-14,88.0,75.6,64.4,72.7,68.1,63.6,98,79,55,30.28,30.18,12,2,12,0.00
2013-7-15,92.3,80.9,70.9,74.0,70.6,64.8,96,73,43,30.18,30.06,11,2,14,0.00
2013-7-16,90.3,80.5,74.0,77.6,69.9,66.1,89,71,54,30.16,30.09,9,1,10,0.12
2013-7-17,85.3,76.7,68.4,74.7,70.1,66.8,96,81,67,30.17,29.91,21,3,22,0.08
2013-7-18,84.8,75.8,68.1,74.7,70.9,66.9,97,86,64,30.01,29.92,9,1,9,0.21
2013-7-19,96.1,82.4,67.9,78.6,73.3,67.3,99,77,50,29.95,29.64,19,2,19,0.00
2013-7-20,91.5,82.2,74.3,75.9,69.8,65.8,82,67,48,29.78,29.61,17,3,17,0.00
2013-7-21,76.0,70.3,63.3,67.6,62.5,57.5,97,77,56,30.02,29.78,5,0,6,0.00
2013-7-22,74.0,66.9,62.4,66.0,64.0,61.0,99,91,75,30.05,29.92,4,0,4,0.00
2013-7-23,69.6,65.5,62.9,68.1,64.8,62.1,99,97,93,29.92,29.55,3,0,5,1.00
2013-7-24,77.5,70.4,60.6,72.6,65.6,52.0,100,86,63,29.98,29.57,14,1,14,0.01
2013-7-25,71.5,62.6,57.2,60.8,55.6,50.5,96,79,60,30.13,29.97,11,1,11,0.03
2013-7-26,70.5,66.0,62.1,65.4,63.0,60.6,97,90,82,30.09,29.90,17,2,17,0.17
2013-7-27,82.5,71.9,62.7,69.9,64.8,61.5,96,80,53,30.02,29.93,14,2,14,0.00
2013-7-28,68.2,64.8,62.2,65.9,63.6,61.6,99,96,89,30.05,30.00,10,0,14,0.07
2013-7-29,72.1,64.3,60.3,67.7,63.1,60.0,100,96,85,30.06,30.00,10,0,10,0.12
2013-7-30,78.5,69.0,60.1,68.8,63.0,54.5,100,83,46,30.08,30.01,10,0,12,0.01
2013-7-31,80.1,69.4,58.8,64.6,60.1,56.5,93,74,51,30.12,30.03,14,2,15,0.00
2013-8-1,76.8,67.6,60.2,69.5,64.3,59.0,99,90,69,30.05,29.88,11,1,11,0.00
2013-8-2,76.5,67.8,62.6,69.9,65.3,62.2,99,92,77,29.88,29.75,6,1,12,0.53
2013-8-3,80.0,69.6,59.9,66.0,60.0,55.8,99,74,46,29.83,29.73,12,2,23,0.01
2013-8-4,78.3,67.3,59.5,64.5,59.2,55.3,92,76,56,29.85,29.74,31,1,31,0.07
2013-8-5,75.4,65.3,55.4,55.4,51.0,42.6,90,62,40,30.04,29.84,17,3,19,0.00
2013-8-6,78.1,65.3,53.6,61.4,52.2,45.2,90,64,42,30.16,30.03,11,2,12,0.00
2013-8-7,74.4,65.2,55.1,67.4,59.8,52.0,95,83,62,30.19,30.11,13,1,13,0.00
2013-8-8,77.5,69.0,63.1,70.7,65.4,60.0,97,88,78,30.12,29.99,18,2,18,0.32
2013-8-9,70.0,68.3,66.7,69.4,67.6,66.0,99,98,94,30.01,29.72,10,3,19,0.71
2013-8-10,82.7,72.9,62.8,68.1,59.3,47.2,100,67,33,30.00,29.74,18,3,18,0.00
2013-8-11,77.7,66.6,55.8,59.8,55.3,50.5,85,69,43,30.06,29.98,12,2,12,0.00
2013-8-12,78.9,68.7,58.0,65.2,59.4,55.0,91,73,52,30.01,29.90,12,2,12,0.00
2013-8-13,73.5,66.5,60.1,66.9,62.4,58.0,99,87,69,29.91,29.69,17,1,17,0.00
2013-8-14,76.8,68.4,61.0,65.6,58.5,49.8,100,74,42,29.90,29.63,20,3,20,0.00
2013-8-15,77.3,65.9,54.5,56.1,52.7,50.2,90,65,41,30.08,29.90,13,3,15,0.00
2013-8-16,76.6,65.9,55.9,62.1,57.0,53.0,91,74,48,30.17,30.07,10,1,10,0.00
2013-8-17,79.0,67.2,57.8,62.4,57.7,53.0,96,73,50,30.27,30.17,11,1,11,0.00
2013-8-18,73.8,65.5,56.2,64.0,59.6,54.0,96,82,62,30.27,30.05,14,1,14,0.00
2013-8-19,84.5,72.7,60.5,64.9,61.8,56.7,95,72,44,30.05,29.89,12,2,12,0.00
2013-8-20,84.0,73.0,64.1,67.6,63.4,61.7,94,73,53,30.07,29.94,11,1,11,0.00
2013-8-21,85.1,73.0,63.4,68.9,65.1,61.4,95,78,54,30.12,29.98,11,2,13,0.00
2013-8-22,89.2,76.1,66.8,69.3,66.5,62.5,88,74,45,29.99,29.76,17,3,17,0.00
2013-8-23,80.2,72.2,62.4,69.2,56.7,47.0,86,60,33,30.14,29.76,16,2,16,0.00
2013-8-24,77.9,65.6,55.5,55.9,51.0,46.9,84,61,40,30.31,30.14,10,1,11,0.00
2013-8-25,78.4,66.1,54.9,60.0,55.5,51.1,93,71,46,30.36,30.14,12,2,12,0.00
2013-8-26,81.0,69.3,62.1,69.0,63.5,57.0,96,83,63,30.14,29.86,13,2,13,0.22
2013-8-27,82.3,71.1,64.1,68.8,65.7,63.0,99,84,61,29.90,29.84,6,0,6,0.00
2013-8-28,70.5,65.5,62.3,66.7,64.1,61.7,99,95,87,30.01,29.87,7,0,7,0.02
2013-8-29,71.0,64.9,60.5,64.7,62.2,58.2,99,91,77,30.10,29.98,5,0,5,0.00
2013-8-30,79.7,68.7,59.1,68.2,63.2,57.7,96,83,66,30.03,29.77,11,2,12,0.00
2013-8-31,81.8,71.6,65.7,72.5,68.2,64.5,96,89,70,29.82,29.75,11,1,11,0.00
2013-9-1,81.7,72.6,66.6,73.3,69.1,65.6,99,89,71,29.91,29.75,7,0,7,0.00
2013-9-2,68.2,65.6,61.8,68.2,65.5,61.4,100,100,98,29.89,29.74,10,0,10,3.50
2013-9-3,76.4,69.8,65.8,71.7,67.9,63.0,100,94,82,29.77,29.70,10,1,10,0.01
2013-9-4,81.2,70.2,59.9,63.3,58.9,53.9,95,70,41,29.88,29.74,14,2,14,0.00
2013-9-5,67.5,61.7,54.2,61.2,55.0,44.3,96,79,59,30.14,29.85,9,1,9,0.10
2013-9-6,67.3,57.9,46.6,53.7,46.3,39.0,88,67,40,30.23,30.04,11,2,12,0.00
2013-9-7,79.3,64.5,50.2,60.2,51.6,46.3,88,65,38,30.04,29.79,14,2,14,0.01
2013-9-8,68.8,62.2,50.6,60.2,49.1,39.0,87,64,43,30.08,29.71,26,3,26,0.03
2013-9-9,68.1,56.7,44.5,55.8,46.8,40.0,87,71,43,30.22,30.07,15,2,15,0.00
2013-9-10,66.4,62.0,55.7,64.3,59.8,-99.9,98,93,77,30.13,30.02,9,1,15,0.08
2013-9-11,93.0,75.6,61.1,77.0,69.8,60.5,100,84,57,30.05,29.89,29,2,33,0.40
2013-9-12,78.0,69.2,64.9,72.1,67.7,64.0,99,95,80,29.95,29.66,10,2,18,1.41
2013-9-13,70.3,64.2,58.9,68.0,63.5,57.0,100,98,90,29.73,29.58,12,1,15,1.56
2013-9-14,70.7,62.2,56.2,60.8,56.3,50.8,96,82,61,30.03,29.72,11,2,12,0.00
2013-9-15,67.8,59.1,48.4,57.0,52.2,47.7,98,79,62,30.14,30.00,9,1,11,0.00
2013-9-16,68.6,58.1,46.6,57.6,50.2,36.0,89,76,57,30.27,29.97,17,2,18,0.01
2013-9-17,66.4,53.1,43.3,50.1,42.5,36.0,86,69,43,30.42,30.27,10,2,12,0.00
2013-9-18,70.6,56.7,45.1,55.4,48.4,43.4,95,77,40,30.30,30.10,9,1,10,0.00
2013-9-19,74.3,60.4,48.3,55.8,50.5,47.0,97,73,42,30.13,30.02,7,1,9,0.00
2013-9-20,73.2,59.5,50.6,58.7,54.3,49.6,99,85,55,30.11,30.02,3,0,5,0.00
2013-9-21,68.4,61.2,54.2,63.3,59.3,53.9,100,94,82,30.03,29.74,13,2,18,0.01
2013-9-22,71.1,64.2,51.9,64.4,58.2,46.0,99,82,50,29.77,29.58,13,4,19,0.33
2013-9-23,60.1,52.6,45.3,46.2,42.4,39.0,89,69,52,29.97,29.77,16,3,22,0.00
2013-9-24,60.6,50.4,41.6,46.9,42.8,39.0,91,76,53,29.95,29.83,13,2,17,0.00
2013-9-25,62.7,55.0,45.9,50.6,46.9,43.0,91,75,60,29.99,29.87,10,2,12,0.00
2013-9-26,66.5,57.2,48.2,54.6,49.9,44.8,88,77,61,30.14,29.99,10,2,14,0.00
2013-9-27,70.2,61.1,55.4,58.3,53.8,51.0,94,78,58,30.25,30.13,7,1,8,0.00
2013-9-28,68.6,58.2,52.2,57.8,53.8,50.3,99,86,64,30.34,30.25,6,0,7,0.00
2013-9-29,61.6,53.9,48.9,56.6,52.1,48.0,99,94,82,30.27,30.14,5,0,6,0.01
2013-9-30,61.2,51.6,43.2,56.6,49.8,42.9,100,94,78,30.15,29.97,4,0,5,0.02
2013-10-1,75.9,60.3,47.9,58.6,52.8,47.2,99,79,45,29.98,29.82,8,1,8,0.01
2013-10-2,79.2,66.1,56.3,63.1,57.6,52.2,93,76,47,29.90,29.76,14,2,14,0.00
2013-10-3,74.7,63.4,53.9,57.0,53.0,47.0,95,71,39,30.06,29.90,11,1,11,0.00
2013-10-4,72.4,59.9,50.7,56.8,52.2,47.3,98,78,44,30.09,30.02,6,0,6,0.00
2013-10-5,61.9,57.7,53.5,55.2,51.4,47.7,97,80,64,30.15,30.07,4,0,5,0.00
2013-10-6,55.1,52.8,50.8,54.0,48.0,41.0,98,84,69,30.29,30.14,7,1,9,0.16
2013-10-7,66.4,60.8,54.3,65.5,60.2,54.0,100,98,89,30.20,29.80,23,3,27,0.56
2013-10-8,63.9,56.7,45.4,57.3,45.9,40.7,89,69,44,30.40,29.84,12,3,16,0.00
2013-10-9,59.3,49.4,40.8,47.1,43.0,38.7,94,80,56,30.50,30.38,4,0,6,0.00
2013-10-10,63.2,50.5,41.1,53.5,46.7,38.0,98,88,44,30.38,30.20,8,0,8,0.00
2013-10-11,64.3,58.0,47.2,53.8,51.7,47.0,99,80,57,30.19,30.13,4,0,5,0.01
2013-10-12,59.5,55.3,48.1,54.0,52.4,47.0,98,90,77,30.43,30.17,7,0,7,0.00
2013-10-13,59.9,52.0,45.5,51.0,48.4,45.0,98,88,68,30.48,30.40,2,0,4,0.00
2013-10-14,60.7,51.8,42.5,52.0,47.0,42.0,98,85,61,30.40,30.25,8,1,11,0.01
2013-10-15,64.7,56.3,52.9,56.0,53.3,51.0,97,90,71,30.29,30.21,4,0,5,0.00
2013-10-16,59.0,56.1,53.8,56.1,55.1,53.0,99,96,87,30.21,29.89,4,0,5,0.01
2013-10-17,71.1,59.5,53.6,60.0,55.8,53.0,99,89,59,29.90,29.70,11,2,11,0.01
2013-10-18,68.3,60.2,52.5,60.0,52.4,44.8,100,78,51,29.85,29.57,19,4,19,0.24
2013-10-19,64.1,54.7,45.6,53.4,45.8,39.0,88,73,46,29.94,29.75,13,3,14,0.00
2013-10-20,62.4,55.5,48.1,53.1,42.3,33.0,95,64,35,29.97,29.66,24,4,24,0.00
2013-10-21,62.8,51.6,42.9,52.0,43.0,36.9,88,74,43,30.09,29.97,10,3,12,0.00
2013-10-22,61.4,54.7,45.7,55.1,50.2,41.7,95,85,76,29.97,29.70,14,3,16,0.00
2013-10-23,54.5,46.8,39.0,42.6,39.4,34.0,91,76,53,29.78,29.58,5,0,10,0.00
2013-10-24,51.6,44.3,38.8,37.6,33.3,29.0,80,66,43,29.84,29.60,13,3,24,0.00
2013-10-25,49.0,39.4,33.6,36.0,30.6,26.6,88,71,46,30.11,29.83,10,2,18,0.00
2013-10-26,51.6,43.3,31.0,38.2,31.7,26.7,88,65,46,30.12,29.87,17,3,18,0.00
2013-10-27,55.8,47.5,39.1,41.4,36.9,29.0,92,68,47,30.02,29.78,16,3,18,0.05
2013-10-28,57.5,44.6,35.5,37.3,32.3,25.0,80,63,44,30.36,30.01,24,4,24,0.00
2013-10-29,45.3,37.8,31.7,30.0,26.8,24.0,81,65,46,30.46,30.35,5,1,11,0.00
2013-10-30,50.2,39.7,32.3,33.0,29.8,26.0,86,69,49,30.36,30.18,9,2,13,0.00
2013-10-31,55.9,51.1,31.8,55.3,49.3,30.0,98,94,78,30.25,29.77,16,3,17,0.26
2013-11-1,68.6,60.4,55.7,61.3,56.4,49.5,99,87,64,29.77,29.36,25,6,27,0.07
2013-11-2,65.2,56.7,48.6,51.0,45.2,42.6,93,67,44,29.74,29.57,12,3,14,0.05
2013-11-3,48.5,40.0,32.8,46.3,28.6,19.0,92,65,45,30.44,29.74,16,5,20,0.00
2013-11-4,41.6,34.6,29.5,25.4,20.7,18.0,83,58,39,30.72,30.43,15,3,15,0.00
2013-11-5,46.9,38.0,29.1,36.8,30.7,23.0,87,75,57,30.73,30.50,11,1,13,0.00
2013-11-6,54.5,47.6,39.0,50.3,42.8,34.0,95,83,72,30.51,29.98,16,3,19,0.00
2013-11-7,59.7,52.4,42.6,57.0,47.8,31.0,95,85,63,29.99,29.63,16,4,19,0.02
2013-11-8,45.6,40.0,32.9,32.2,26.6,23.7,75,59,46,30.01,29.78,21,4,22,0.00
2013-11-9,44.7,38.7,31.1,30.4,23.7,21.0,70,55,40,30.14,30.01,15,3,16,0.00
2013-11-10,44.7,41.5,37.5,41.5,37.9,30.0,96,87,70,30.06,29.72,17,2,18,0.04
2013-11-11,45.7,42.3,36.7,37.0,31.1,27.7,81,65,51,30.04,29.75,15,3,16,0.00
2013-11-12,45.2,34.5,27.1,35.4,22.2,16.0,87,61,52,30.13,29.83,18,5,20,0.00
2013-11-13,35.6,28.8,23.1,17.5,14.8,11.6,75,56,40,30.25,30.09,14,3,19,0.00
2013-11-14,49.3,38.5,29.0,30.7,24.7,14.0,69,58,45,30.10,29.98,17,3,17,0.00
2013-11-15,52.6,42.5,32.6,38.2,28.5,20.8,84,60,31,30.18,30.08,15,2,15,0.00
2013-11-16,50.7,42.6,36.3,43.0,35.9,27.0,99,78,53,30.34,30.17,5,0,9,0.00
2013-11-17,53.2,42.4,39.6,53.0,42.0,39.0,99,98,92,30.35,29.91,7,0,13,0.16
2013-11-18,63.5,55.8,48.0,58.0,48.3,36.0,100,78,47,29.89,29.48,19,4,26,0.13
2013-11-19,48.0,38.2,32.1,36.0,22.5,16.9,63,53,45,30.23,29.59,27,7,27,0.00
2013-11-20,40.1,33.6,29.2,17.4,15.3,11.6,59,47,31,30.63,30.23,21,4,26,0.00
2013-11-21,47.2,35.7,24.3,27.3,19.1,12.9,81,53,27,30.64,30.33,9,2,14,0.00
2013-11-22,40.3,37.6,34.7,37.0,30.5,22.0,94,76,57,30.33,29.78,9,1,9,0.02
2013-11-23,41.5,37.0,28.8,40.0,25.3,16.0,97,66,36,29.83,29.69,18,6,26,0.00
2013-11-24,29.0,21.0,19.8,22.6,1.9,-99.9,78,46,41,30.03,29.70,32,-10,33,0.00
2013-11-25,31.2,24.4,18.5,15.0,2.9,-99.9,55,41,27,30.32,30.03,23,-6,30,0.00
2013-11-26,34.6,32.2,27.1,33.5,23.9,-99.9,97,75,49,30.32,30.13,11,-9,11,0.09
2013-11-27,59.9,49.0,34.2,59.6,48.5,33.0,99,98,90,30.14,29.15,21,5,29,1.84
2013-11-28,39.7,30.2,21.5,37.2,17.3,7.0,91,59,40,30.41,29.31,27,8,28,0.00
2013-11-29,28.4,22.4,17.7,13.2,9.8,4.0,75,59,36,30.76,30.40,16,3,16,0.00
2013-11-30,31.6,24.0,17.6,24.6,15.9,9.0,84,71,58,30.82,30.43,7,1,9,0.00
2013-12-1,36.5,34.3,31.0,36.0,31.8,23.0,98,91,73,30.43,30.05,12,3,15,0.51
2013-12-2,37.0,35.4,33.6,37.0,34.9,33.0,99,98,97,30.05,29.92,13,3,13,0.03
2013-12-3,44.4,38.4,33.5,40.9,36.7,30.5,100,94,77,29.93,29.85,12,3,12,0.00
2013-12-4,41.2,34.6,30.1,30.5,28.2,25.6,91,78,59,30.21,29.90,9,2,15,0.00
2013-12-5,43.2,35.7,30.0,42.9,34.2,27.7,99,94,90,30.25,29.91,6,1,6,0.02
2013-12-6,44.6,40.9,34.0,44.3,39.6,32.0,100,95,72,30.14,29.85,7,0,7,0.19
2013-12-7,37.7,33.0,25.7,32.7,27.4,12.0,98,82,46,30.43,30.07,17,2,23,0.02
2013-12-8,29.1,27.2,23.0,15.3,12.9,11.0,69,55,48,30.58,30.42,8,1,10,0.00
2013-12-9,38.1,30.1,25.3,37.3,26.2,13.0,97,86,56,30.53,29.85,12,3,12,0.18
2013-12-10,33.5,30.1,22.1,31.1,27.8,16.3,97,91,78,29.92,29.73,15,4,15,0.00
2013-12-11,30.0,24.3,19.3,19.9,16.3,14.0,87,72,54,30.15,29.92,19,4,19,0.00
2013-12-12,21.7,17.5,13.5,18.2,4.6,-2.0,86,57,38,30.25,30.01,14,3,17,0.00
2013-12-13,26.0,17.1,7.7,12.6,5.3,-3.9,73,60,40,30.40,29.92,16,6,32,0.00
2013-12-14,15.8,10.4,4.0,14.1,1.1,-6.1,93,66,51,30.64,30.34,11,4,15,0.00
2013-12-15,20.4,16.9,14.1,16.1,14.2,12.0,94,89,78,30.34,29.41,25,6,25,0.00
2013-12-16,25.7,20.0,9.2,17.1,9.9,-0.6,91,67,42,30.21,29.67,23,5,24,0.00
2013-12-17,14.8,10.0,3.1,12.4,3.2,-6.2,93,74,59,30.31,30.02,14,3,15,0.00
2013-12-18,32.4,22.6,12.2,24.7,18.1,10.0,94,83,62,30.03,29.84,18,4,19,0.00
2013-12-19,34.9,29.8,23.0,25.6,23.2,18.8,84,77,68,30.08,29.92,17,3,17,0.00
2013-12-20,43.0,35.4,31.1,38.8,32.1,25.5,95,88,76,30.12,29.90,3,0,6,0.01
2013-12-21,38.9,35.8,33.6,37.9,34.9,32.8,98,97,94,29.95,29.83,7,1,7,0.14
2013-12-22,35.2,30.5,27.5,34.7,29.9,26.9,99,98,97,30.09,29.88,10,4,14,0.30
2013-12-23,33.5,30.6,27.6,33.2,30.2,27.0,99,98,98,30.12,29.97,10,1,10,0.23
2013-12-24,34.0,27.8,16.7,33.5,24.9,12.0,99,89,79,30.19,30.06,12,2,12,0.01
2013-12-25,19.7,14.8,9.2,15.7,9.0,1.8,91,78,68,30.56,30.18,21,3,22,0.00
2013-12-26,25.9,21.5,17.0,24.9,19.3,13.8,97,91,76,30.52,30.08,7,2,12,0.00
2013-12-27,32.8,25.2,16.9,27.0,21.1,15.0,94,84,71,30.22,30.13,15,3,15,0.00
2013-12-28,38.5,31.4,21.4,32.7,26.4,18.5,90,82,73,30.18,29.94,18,4,18,0.00
2013-12-29,37.2,32.7,26.2,34.8,31.3,25.0,99,95,87,30.02,29.50,15,2,15,0.63
2013-12-30,34.9,25.2,9.6,33.1,20.6,1.8,98,83,62,30.19,29.51,22,4,23,0.00
2013-12-31,13.2,9.6,6.0,8.8,4.5,-1.0,90,79,69,30.20,30.05,15,2,15,0.00
2014-1-1,22.0,15.2,7.7,9.4,7.4,5.0,91,72,53,30.41,30.12,20,4,22,0.00
2014-1-2,14.5,2.5,-2.7,7.7,-0.9,-6.0,89,86,72,30.44,29.99,27,7,27,0.00